createdAt,value
2018-07-26T00:00:33.469Z,99.90
2018-07-26T00:03:13.055Z,99.90
2018-07-26T00:05:41.690Z,99.90
2018-07-26T00:08:10.879Z,99.90
2018-07-26T00:10:39.440Z,99.90
2018-07-26T00:13:08.713Z,99.90
2018-07-26T00:15:37.396Z,99.90
2018-07-26T00:18:07.211Z,99.90
2018-07-26T00:20:35.819Z,99.90
2018-07-26T00:23:04.419Z,99.90
2018-07-26T00:25:33.334Z,99.90
2018-07-26T00:28:01.884Z,99.90
2018-07-26T00:30:31.380Z,99.90
2018-07-26T00:33:00.015Z,99.90
2018-07-26T00:35:28.581Z,99.90
2018-07-26T00:37:57.145Z,99.90
2018-07-26T00:40:25.967Z,99.90
2018-07-26T00:42:54.641Z,99.90
2018-07-26T00:45:23.288Z,99.90
2018-07-26T00:47:51.973Z,99.90
2018-07-26T00:50:20.629Z,99.90
2018-07-26T00:52:49.335Z,99.90
2018-07-26T00:55:18.091Z,99.90
2018-07-26T00:57:46.641Z,99.90
2018-07-26T01:00:15.165Z,99.90
2018-07-26T01:02:43.951Z,99.90
2018-07-26T01:05:13.449Z,99.90
2018-07-26T01:07:42.899Z,99.90
2018-07-26T01:10:11.577Z,99.90
2018-07-26T01:12:40.318Z,99.90
2018-07-26T01:15:08.978Z,99.90
2018-07-26T01:17:37.731Z,99.90
2018-07-26T01:20:06.846Z,99.90
2018-07-26T01:22:35.692Z,99.90
2018-07-26T01:25:05.526Z,99.90
2018-07-26T01:27:34.222Z,99.90
2018-07-26T01:30:03.566Z,99.90
2018-07-26T01:32:32.287Z,99.90
2018-07-26T01:35:00.901Z,99.90
2018-07-26T01:37:30.634Z,99.90
2018-07-26T01:39:59.408Z,99.90
2018-07-26T01:42:27.955Z,99.90
2018-07-26T01:44:56.466Z,99.90
2018-07-26T01:47:24.956Z,99.90
2018-07-26T01:49:53.447Z,99.90
2018-07-26T01:52:21.960Z,99.90
2018-07-26T01:54:50.460Z,99.90
2018-07-26T01:57:18.990Z,99.90
2018-07-26T01:59:47.463Z,99.90
2018-07-26T02:02:15.959Z,99.90
2018-07-26T02:04:44.567Z,99.90
2018-07-26T02:07:13.057Z,99.90
2018-07-26T02:09:41.593Z,99.90
2018-07-26T02:12:10.287Z,99.90
2018-07-26T02:14:38.810Z,99.90
2018-07-26T02:17:07.612Z,99.90
2018-07-26T02:19:36.103Z,99.90
2018-07-26T02:22:04.694Z,99.90
2018-07-26T02:24:33.184Z,99.90
2018-07-26T02:27:01.717Z,99.90
2018-07-26T02:29:30.186Z,99.90
2018-07-26T02:34:41.596Z,99.90
2018-07-26T02:37:10.112Z,99.90
2018-07-26T02:39:38.574Z,99.90
2018-07-26T02:42:07.440Z,99.90
2018-07-26T02:44:35.936Z,99.90
2018-07-26T02:47:04.468Z,99.90
2018-07-26T02:49:33.026Z,99.90
2018-07-26T02:52:01.532Z,99.90
2018-07-26T02:54:30.041Z,99.90
2018-07-26T02:56:58.539Z,99.90
2018-07-26T02:59:27.054Z,99.90
2018-07-26T03:01:55.557Z,99.90
2018-07-26T03:04:24.031Z,99.90
2018-07-26T03:06:52.510Z,99.90
2018-07-26T03:09:21.016Z,99.90
2018-07-26T03:11:49.511Z,99.90
2018-07-26T03:14:18.031Z,99.90
2018-07-26T03:16:46.523Z,99.90
2018-07-26T03:19:15.016Z,99.90
2018-07-26T03:21:43.563Z,99.90
2018-07-26T03:24:12.241Z,99.90
2018-07-26T03:26:40.726Z,99.90
2018-07-26T03:29:09.231Z,99.90
2018-07-26T03:31:37.734Z,99.90
2018-07-26T03:34:37.191Z,99.90
2018-07-26T03:37:06.059Z,99.90
2018-07-26T03:39:34.651Z,99.90
2018-07-26T03:42:04.019Z,99.90
2018-07-26T03:44:32.538Z,99.90
2018-07-26T03:47:01.020Z,99.90
2018-07-26T03:49:29.633Z,99.90
2018-07-26T03:51:58.107Z,99.90
2018-07-26T03:54:26.679Z,99.90
2018-07-26T03:56:55.208Z,99.90
2018-07-26T03:59:24.015Z,99.90
2018-07-26T04:01:52.524Z,99.90
2018-07-26T04:04:21.039Z,99.90
2018-07-26T04:06:49.528Z,99.90
2018-07-26T04:09:18.043Z,99.90
2018-07-26T04:11:46.962Z,99.90
2018-07-26T04:14:15.502Z,99.90
2018-07-26T04:16:43.998Z,99.90
2018-07-26T04:19:12.713Z,99.90
2018-07-26T04:21:41.757Z,99.90
2018-07-26T04:24:10.635Z,99.90
2018-07-26T04:26:39.195Z,99.90
2018-07-26T04:29:07.703Z,99.90
2018-07-26T04:31:36.190Z,99.90
2018-07-26T04:34:04.719Z,99.90
2018-07-26T04:36:33.200Z,99.90
2018-07-26T04:39:01.757Z,99.90
2018-07-26T04:41:30.275Z,99.90
2018-07-26T04:43:59.474Z,99.90
2018-07-26T04:46:27.976Z,99.90
2018-07-26T04:48:56.517Z,99.90
2018-07-26T04:51:25.159Z,99.90
2018-07-26T04:53:53.704Z,99.90
2018-07-26T04:56:22.259Z,99.90
2018-07-26T04:58:50.745Z,99.90
2018-07-26T05:01:19.242Z,99.90
2018-07-26T05:03:47.770Z,99.90
2018-07-26T05:06:16.300Z,99.90
2018-07-26T05:08:44.803Z,99.90
2018-07-26T05:11:13.325Z,99.90
2018-07-26T05:13:41.864Z,99.90
2018-07-26T05:16:10.418Z,99.90
2018-07-26T05:18:38.939Z,99.90
2018-07-26T05:21:07.566Z,99.90
2018-07-26T05:23:36.409Z,99.90
2018-07-26T05:26:05.449Z,99.90
2018-07-26T05:28:33.966Z,99.90
2018-07-26T05:31:02.513Z,99.90
2018-07-26T05:33:31.023Z,99.90
2018-07-26T05:35:59.635Z,99.90
2018-07-26T05:38:28.135Z,99.90
2018-07-26T05:40:56.728Z,99.90
2018-07-26T05:43:25.258Z,99.90
2018-07-26T05:45:54.544Z,99.90
2018-07-26T05:48:23.859Z,99.90
2018-07-26T05:50:52.406Z,99.90
2018-07-26T05:53:21.131Z,99.90
2018-07-26T05:55:49.771Z,99.90
2018-07-26T05:58:18.274Z,99.90
2018-07-26T06:00:46.786Z,99.90
2018-07-26T06:03:15.332Z,99.90
2018-07-26T06:05:44.042Z,99.90
2018-07-26T06:08:12.618Z,99.90
2018-07-26T06:10:41.146Z,99.90
2018-07-26T06:13:09.663Z,99.90
2018-07-26T06:15:38.215Z,99.90
2018-07-26T06:18:06.751Z,99.90
2018-07-26T06:20:35.448Z,99.90
2018-07-26T06:23:04.493Z,99.90
2018-07-26T06:25:32.991Z,99.90
2018-07-26T06:28:01.665Z,99.90
2018-07-26T06:30:30.196Z,99.90
2018-07-26T06:32:58.751Z,99.90
2018-07-26T06:35:27.223Z,99.90
2018-07-26T06:37:55.794Z,99.90
2018-07-26T06:40:24.279Z,99.90
2018-07-26T06:42:53.147Z,99.90
2018-07-26T06:45:21.663Z,99.90
2018-07-26T06:47:50.183Z,99.90
2018-07-26T06:50:18.673Z,99.90
2018-07-26T06:52:47.171Z,99.90
2018-07-26T06:55:15.739Z,99.90
2018-07-26T06:57:44.247Z,99.90
2018-07-26T07:00:12.805Z,99.90
2018-07-26T07:02:41.359Z,99.90
2018-07-26T07:05:10.417Z,99.90
2018-07-26T07:07:39.254Z,99.90
2018-07-26T07:10:07.852Z,99.90
2018-07-26T07:12:36.494Z,99.90
2018-07-26T07:15:05.327Z,99.90
2018-07-26T07:17:33.811Z,99.90
2018-07-26T07:20:02.421Z,99.90
2018-07-26T07:22:30.907Z,99.90
2018-07-26T07:24:59.419Z,99.90
2018-07-26T07:27:27.944Z,99.90
2018-07-26T07:29:56.832Z,99.90
2018-07-26T07:32:25.318Z,99.90
2018-07-26T07:34:54.123Z,99.90
2018-07-26T07:37:22.978Z,99.90
2018-07-26T07:39:51.495Z,99.90
2018-07-26T07:42:20.016Z,99.90
2018-07-26T07:44:48.533Z,99.90
2018-07-26T07:47:17.426Z,99.90
2018-07-26T07:49:46.084Z,99.90
2018-07-26T07:52:14.639Z,98.20
2018-07-26T07:54:43.135Z,96.90
2018-07-26T07:57:11.619Z,95.90
2018-07-26T07:59:40.110Z,95.30
2018-07-26T08:02:08.646Z,93.50
2018-07-26T08:04:38.410Z,91.80
2018-07-26T08:07:07.746Z,90.90
2018-07-26T08:09:36.810Z,87.20
2018-07-26T08:12:06.558Z,80.90
2018-07-26T08:14:35.648Z,75.40
2018-07-26T08:17:04.806Z,71.60
2018-07-26T08:19:33.912Z,64.80
2018-07-26T08:22:03.055Z,61.70
2018-07-26T08:24:32.467Z,60.30
2018-07-26T08:27:01.579Z,60.70
2018-07-26T08:29:30.715Z,60.30
2018-07-26T08:31:59.987Z,60.90
2018-07-26T08:34:29.041Z,59.60
2018-07-26T08:36:58.110Z,60.30
2018-07-26T08:39:27.179Z,59.00
2018-07-26T08:41:56.618Z,59.30
2018-07-26T08:44:25.720Z,58.40
2018-07-26T08:46:54.943Z,59.10
2018-07-26T08:49:23.999Z,58.00
2018-07-26T08:51:53.024Z,57.80
2018-07-26T08:54:22.140Z,57.30
2018-07-26T08:56:51.307Z,56.90
2018-07-26T08:59:20.361Z,55.80
2018-07-26T09:01:49.400Z,54.40
2018-07-26T09:04:18.465Z,55.40
2018-07-26T09:06:47.574Z,55.20
2018-07-26T09:09:16.628Z,53.90
2018-07-26T09:15:17.394Z,52.90
2018-07-26T09:17:46.450Z,53.20
2018-07-26T09:20:15.843Z,53.00
2018-07-26T09:22:44.919Z,52.60
2018-07-26T09:25:14.342Z,51.90
2018-07-26T09:27:43.775Z,53.20
2018-07-26T09:30:12.846Z,50.50
2018-07-26T09:32:41.878Z,52.60
2018-07-26T09:35:11.294Z,49.70
2018-07-26T09:37:40.336Z,50.50
2018-07-26T09:40:09.483Z,49.00
2018-07-26T09:42:38.521Z,48.10
2018-07-26T09:45:07.640Z,45.50
2018-07-26T09:47:36.714Z,46.00
2018-07-26T09:50:05.955Z,47.00
2018-07-26T09:52:34.985Z,45.90
2018-07-26T09:55:04.096Z,44.80
2018-07-26T09:57:33.326Z,44.80
2018-07-26T10:00:02.376Z,46.00
2018-07-26T10:03:02.063Z,47.30
2018-07-26T10:05:31.119Z,46.90
2018-07-26T10:08:00.154Z,46.30
2018-07-26T10:10:29.206Z,45.60
2018-07-26T10:12:58.252Z,45.80
2018-07-26T10:15:27.303Z,45.80
2018-07-26T10:17:56.707Z,46.00
2018-07-26T10:20:25.768Z,46.70
2018-07-26T10:22:54.840Z,46.00
2018-07-26T10:25:23.910Z,43.50
2018-07-26T10:27:52.997Z,44.00
2018-07-26T10:30:22.203Z,44.20
2018-07-26T10:32:51.279Z,43.90
2018-07-26T10:35:20.298Z,43.80
2018-07-26T10:37:49.350Z,43.00
2018-07-26T10:40:18.387Z,44.10
2018-07-26T10:42:47.426Z,44.80
2018-07-26T10:45:16.818Z,43.50
2018-07-26T10:47:45.858Z,43.70
2018-07-26T10:50:15.276Z,45.50
2018-07-26T10:52:44.327Z,45.50
2018-07-26T10:55:13.359Z,46.00
2018-07-26T10:57:47.271Z,45.50
2018-07-26T11:00:16.374Z,45.20
2018-07-26T11:02:45.606Z,45.30
2018-07-26T11:05:14.816Z,46.20
2018-07-26T11:07:44.416Z,45.80
2018-07-26T11:10:13.479Z,46.20
2018-07-26T11:12:42.642Z,45.00
2018-07-26T11:15:35.764Z,46.00
2018-07-26T11:18:05.409Z,45.00
2018-07-26T11:20:35.043Z,44.90
2018-07-26T11:23:04.322Z,44.30
2018-07-26T11:25:33.443Z,43.80
2018-07-26T11:28:02.934Z,45.00
2018-07-26T11:30:32.203Z,44.10
2018-07-26T11:33:01.408Z,44.00
2018-07-26T11:35:30.625Z,44.40
2018-07-26T11:37:59.819Z,43.70
2018-07-26T11:40:29.179Z,44.20
2018-07-26T11:42:58.240Z,43.70
2018-07-26T11:45:27.298Z,45.20
2018-07-26T11:47:56.360Z,44.40
2018-07-26T11:50:25.501Z,44.90
2018-07-26T11:52:54.740Z,43.50
2018-07-26T11:55:23.955Z,44.40
2018-07-26T11:57:53.258Z,45.30
2018-07-26T12:00:22.616Z,46.00
2018-07-26T12:02:51.873Z,44.30
2018-07-26T12:05:21.026Z,44.50
2018-07-26T12:07:50.092Z,43.50
2018-07-26T12:10:19.157Z,43.30
2018-07-26T12:12:48.347Z,42.30
2018-07-26T12:15:19.906Z,42.90
2018-07-26T12:17:49.261Z,43.80
2018-07-26T12:20:18.545Z,43.90
2018-07-26T12:22:48.584Z,43.10
2018-07-26T12:25:17.715Z,42.60
2018-07-26T12:27:47.255Z,42.50
2018-07-26T12:30:16.346Z,42.50
2018-07-26T12:32:45.688Z,41.20
2018-07-26T12:35:16.864Z,43.10
2018-07-26T12:37:49.352Z,42.80
2018-07-26T12:40:18.794Z,42.40
2018-07-26T12:42:49.773Z,43.20
2018-07-26T12:45:18.929Z,42.60
2018-07-26T12:47:50.815Z,41.20
2018-07-26T12:50:20.047Z,41.90
2018-07-26T12:52:49.103Z,42.10
2018-07-26T12:55:18.139Z,41.00
2018-07-26T12:57:47.205Z,42.00
2018-07-26T13:00:16.800Z,41.90
2018-07-26T13:02:46.037Z,42.30
2018-07-26T13:05:15.415Z,41.70
2018-07-26T13:07:44.486Z,41.10
2018-07-26T13:10:13.502Z,41.10
2018-07-26T13:12:42.572Z,40.90
2018-07-26T13:15:12.033Z,40.90
2018-07-26T13:17:41.254Z,41.90
2018-07-26T13:20:10.573Z,40.50
2018-07-26T13:22:39.945Z,41.80
2018-07-26T13:25:09.107Z,41.30
2018-07-26T13:27:38.380Z,40.60
2018-07-26T13:30:07.891Z,40.80
2018-07-26T13:32:37.287Z,41.30
2018-07-26T13:35:07.585Z,40.00
2018-07-26T13:37:39.595Z,40.50
2018-07-26T13:40:09.942Z,40.50
2018-07-26T13:42:40.054Z,40.50
2018-07-26T13:45:10.502Z,39.70
2018-07-26T13:47:40.633Z,40.70
2018-07-26T13:50:09.736Z,40.40
2018-07-26T13:52:39.239Z,40.40
2018-07-26T13:55:08.472Z,39.60
2018-07-26T13:57:37.765Z,40.10
2018-07-26T14:00:07.372Z,40.00
2018-07-26T14:02:37.125Z,40.30
2018-07-26T14:05:09.234Z,40.30
2018-07-26T14:07:41.335Z,41.60
2018-07-26T14:10:10.851Z,40.20
2018-07-26T14:12:39.871Z,39.90
2018-07-26T14:17:39.651Z,40.20
2018-07-26T14:20:10.619Z,40.00
2018-07-26T14:22:40.187Z,39.80
2018-07-26T14:25:09.304Z,39.80
2018-07-26T14:27:38.384Z,39.50
2018-07-26T14:30:08.362Z,39.00
2018-07-26T14:32:37.430Z,40.50
2018-07-26T14:35:06.679Z,39.10
2018-07-26T14:37:35.742Z,38.90
2018-07-26T14:40:05.778Z,40.00
2018-07-26T14:42:34.836Z,40.00
2018-07-26T14:45:04.877Z,40.00
2018-07-26T14:47:34.002Z,39.00
2018-07-26T14:50:03.135Z,40.40
2018-07-26T14:52:32.192Z,39.60
2018-07-26T14:55:01.276Z,39.40
2018-07-26T14:57:30.333Z,39.30
2018-07-26T14:59:59.424Z,40.50
2018-07-26T15:02:28.476Z,39.40
2018-07-26T15:04:57.721Z,39.40
2018-07-26T15:07:26.771Z,39.90
2018-07-26T15:09:55.877Z,39.10
2018-07-26T15:12:25.054Z,38.00
2018-07-26T15:14:54.127Z,38.60
2018-07-26T15:17:23.271Z,38.10
2018-07-26T15:19:52.320Z,38.70
2018-07-26T15:22:21.363Z,37.80
2018-07-26T15:24:50.420Z,37.50
2018-07-26T15:27:19.503Z,37.40
2018-07-26T15:29:48.547Z,38.00
2018-07-26T15:32:17.674Z,37.10
2018-07-26T15:34:46.867Z,36.50
2018-07-26T15:37:15.939Z,36.70
2018-07-26T15:39:44.993Z,36.20
2018-07-26T15:42:14.050Z,35.60
2018-07-26T15:44:43.136Z,36.20
2018-07-26T15:47:12.391Z,35.50
2018-07-26T15:49:41.454Z,35.10
2018-07-26T15:52:10.563Z,34.50
2018-07-26T15:54:39.784Z,35.30
2018-07-26T15:57:08.939Z,35.50
2018-07-26T15:59:38.510Z,35.00
2018-07-26T16:02:07.683Z,35.50
2018-07-26T16:04:37.201Z,35.10
2018-07-26T16:07:08.261Z,34.70
2018-07-26T16:09:40.373Z,35.10
2018-07-26T16:12:09.422Z,35.20
2018-07-26T16:14:38.552Z,36.50
2018-07-26T16:17:07.621Z,35.60
2018-07-26T16:19:36.672Z,36.60
2018-07-26T16:22:06.503Z,37.90
2018-07-26T16:24:35.910Z,35.90
2018-07-26T16:27:05.030Z,35.60
2018-07-26T16:29:34.080Z,35.80
2018-07-26T16:32:03.150Z,36.80
2018-07-26T16:34:32.182Z,36.90
2018-07-26T16:37:01.289Z,37.50
2018-07-26T16:39:30.552Z,39.00
2018-07-26T16:41:59.607Z,37.60
2018-07-26T16:44:28.755Z,37.60
2018-07-26T16:46:57.803Z,38.30
2018-07-26T16:49:26.848Z,39.30
2018-07-26T16:51:55.925Z,38.40
2018-07-26T16:54:25.022Z,39.30
2018-07-26T16:56:54.090Z,38.90
2018-07-26T16:59:23.142Z,38.00
2018-07-26T17:01:52.531Z,38.60
2018-07-26T17:04:21.626Z,38.60
2018-07-26T17:06:50.801Z,39.70
2018-07-26T17:09:19.952Z,39.40
2018-07-26T17:11:49.011Z,39.90
2018-07-26T17:14:18.064Z,40.00
2018-07-26T17:16:47.118Z,40.50
2018-07-26T17:19:16.547Z,40.00
2018-07-26T17:21:45.604Z,39.90
2018-07-26T17:24:14.143Z,39.40
2018-07-26T17:26:43.200Z,39.40
2018-07-26T17:29:12.545Z,40.00
2018-07-26T17:31:41.739Z,40.20
2018-07-26T17:36:39.574Z,40.20
2018-07-26T17:39:10.131Z,40.60
2018-07-26T17:41:39.613Z,40.50
2018-07-26T17:44:08.703Z,40.60
2018-07-26T17:46:37.765Z,40.60
2018-07-26T17:49:06.874Z,40.80
2018-07-26T17:51:35.923Z,41.20
2018-07-26T17:54:05.604Z,41.20
2018-07-26T17:56:34.667Z,40.90
2018-07-26T17:59:03.190Z,41.40
2018-07-26T18:01:32.251Z,41.70
2018-07-26T18:04:00.795Z,41.60
2018-07-26T18:06:29.388Z,41.60
2018-07-26T18:08:57.889Z,41.20
2018-07-26T18:11:27.099Z,41.60
2018-07-26T18:13:55.660Z,41.70
2018-07-26T18:16:24.338Z,42.00
2018-07-26T18:18:52.921Z,42.10
2018-07-26T18:21:21.508Z,42.10
2018-07-26T18:23:50.031Z,42.10
2018-07-26T18:26:19.210Z,42.70
2018-07-26T18:28:47.812Z,43.50
2018-07-26T18:31:16.392Z,43.10
2018-07-26T18:33:45.172Z,42.30
2018-07-26T18:36:13.728Z,42.80
2018-07-26T18:38:42.234Z,43.50
2018-07-26T18:41:10.740Z,43.20
2018-07-26T18:43:39.334Z,43.50
2018-07-26T18:46:07.979Z,43.80
2018-07-26T18:48:36.523Z,44.60
2018-07-26T18:51:05.366Z,43.60
2018-07-26T18:53:33.904Z,43.70
2018-07-26T18:56:02.452Z,44.50
2018-07-26T18:58:31.875Z,43.90
2018-07-26T19:01:00.367Z,44.30
2018-07-26T19:03:28.872Z,44.40
2018-07-26T19:05:59.035Z,45.20
2018-07-26T19:08:27.641Z,45.00
2018-07-26T19:10:56.175Z,45.60
2018-07-26T19:13:25.787Z,45.30
2018-07-26T19:15:56.039Z,45.70
2018-07-26T19:18:24.841Z,47.80
2018-07-26T19:23:21.514Z,48.10
2018-07-26T19:25:50.006Z,48.00
2018-07-26T19:28:18.502Z,47.10
2018-07-26T19:30:47.023Z,47.30
2018-07-26T19:33:15.531Z,46.90
2018-07-26T19:35:44.031Z,47.80
2018-07-26T19:38:12.496Z,47.10
2018-07-26T19:40:41.028Z,48.00
2018-07-26T19:43:09.523Z,47.30
2018-07-26T19:45:38.254Z,47.50
2018-07-26T19:48:06.983Z,48.00
2018-07-26T19:50:35.842Z,50.00
2018-07-26T19:53:04.389Z,48.50
2018-07-26T19:55:32.908Z,50.70
2018-07-26T19:58:01.391Z,49.10
2018-07-26T20:00:29.934Z,50.30
2018-07-26T20:02:58.754Z,50.40
2018-07-26T20:05:27.231Z,50.10
2018-07-26T20:07:55.711Z,53.40
2018-07-26T20:10:24.242Z,50.40
2018-07-26T20:12:52.808Z,52.60
2018-07-26T20:15:21.675Z,52.60
2018-07-26T20:17:50.179Z,51.80
2018-07-26T20:20:18.703Z,51.40
2018-07-26T20:22:47.228Z,51.50
2018-07-26T20:25:15.782Z,52.20
2018-07-26T20:27:44.278Z,52.00
2018-07-26T20:30:13.191Z,52.90
2018-07-26T20:32:41.684Z,52.60
2018-07-26T20:35:10.337Z,53.60
2018-07-26T20:37:39.270Z,54.80
2018-07-26T20:40:09.756Z,55.20
2018-07-26T20:42:38.307Z,54.20
2018-07-26T20:45:09.140Z,55.50
2018-07-26T20:47:38.015Z,53.70
2018-07-26T20:50:07.296Z,55.20
2018-07-26T20:52:35.862Z,54.90
2018-07-26T20:55:05.257Z,58.30
2018-07-26T20:57:33.860Z,57.80
2018-07-26T21:00:02.578Z,59.00
2018-07-26T21:02:31.280Z,55.90
2018-07-26T21:04:59.794Z,57.80
2018-07-26T21:07:28.288Z,56.80
2018-07-26T21:09:56.811Z,60.20
2018-07-26T21:12:25.342Z,58.50
2018-07-26T21:14:53.863Z,61.90
2018-07-26T21:17:22.383Z,59.60
2018-07-26T21:19:50.890Z,61.20
2018-07-26T21:22:19.392Z,64.00
2018-07-26T21:24:49.520Z,64.50
2018-07-26T21:27:18.166Z,64.60
2018-07-26T21:29:46.675Z,62.60
2018-07-26T21:32:15.327Z,63.60
2018-07-26T21:34:43.838Z,62.40
2018-07-26T21:37:12.731Z,59.70
2018-07-26T21:39:41.324Z,61.60
2018-07-26T21:42:09.980Z,63.70
2018-07-26T21:44:38.866Z,64.90
2018-07-26T21:47:07.732Z,64.50
2018-07-26T21:49:36.245Z,63.30
2018-07-26T21:52:04.759Z,62.00
2018-07-26T21:54:34.191Z,66.20
2018-07-26T21:57:03.289Z,64.50
2018-07-26T21:59:32.123Z,64.60
2018-07-26T22:02:00.744Z,64.60
2018-07-26T22:04:29.219Z,65.40
2018-07-26T22:06:57.800Z,64.80
2018-07-26T22:09:26.321Z,61.80
2018-07-26T22:11:54.832Z,63.30
2018-07-26T22:14:23.323Z,61.50
2018-07-26T22:16:51.819Z,63.90
2018-07-26T22:19:20.300Z,63.80
2018-07-26T22:21:48.812Z,64.70
2018-07-26T22:24:17.304Z,63.20
2018-07-26T22:26:46.184Z,65.10
2018-07-26T22:29:14.715Z,64.40
2018-07-26T22:31:43.210Z,65.30
2018-07-26T22:34:12.031Z,64.50
2018-07-26T22:36:40.546Z,66.60
2018-07-26T22:39:10.413Z,61.90
2018-07-26T22:41:39.391Z,62.50
2018-07-26T22:44:08.003Z,63.50
2018-07-26T22:46:36.770Z,64.30
2018-07-26T22:49:05.760Z,66.40
2018-07-26T22:51:34.293Z,69.20
2018-07-26T22:56:32.386Z,64.80
2018-07-26T22:59:01.028Z,65.30
2018-07-26T23:01:29.983Z,66.00
2018-07-26T23:03:58.492Z,65.30
2018-07-26T23:06:27.096Z,64.80
2018-07-26T23:08:55.642Z,65.00
2018-07-26T23:11:24.153Z,66.30
2018-07-26T23:13:52.710Z,66.80
2018-07-26T23:16:21.222Z,66.50
2018-07-26T23:18:49.855Z,67.10
2018-07-26T23:21:18.383Z,67.50
2018-07-26T23:23:46.894Z,66.40
2018-07-26T23:26:16.425Z,67.60
2018-07-26T23:28:44.915Z,66.50
2018-07-26T23:31:13.415Z,67.20
2018-07-26T23:33:43.767Z,65.70
2018-07-26T23:36:12.313Z,66.00
2018-07-26T23:38:40.857Z,65.70
2018-07-26T23:41:09.423Z,66.40
2018-07-26T23:43:37.924Z,67.20
2018-07-26T23:46:06.431Z,65.00
2018-07-26T23:48:35.293Z,68.90
2018-07-26T23:51:03.788Z,67.90
2018-07-26T23:53:32.478Z,69.30
2018-07-26T23:56:00.972Z,69.10
